createdAt,value
2019-03-16T00:00:27.613Z,6.36
2019-03-16T00:01:27.623Z,6.35
2019-03-16T00:02:27.579Z,6.36
2019-03-16T00:03:27.667Z,6.38
2019-03-16T00:04:27.566Z,6.38
2019-03-16T00:05:27.585Z,6.45
2019-03-16T00:06:27.576Z,6.41
2019-03-16T00:07:32.806Z,6.48
2019-03-16T00:08:28.509Z,6.45
2019-03-16T00:09:27.525Z,6.46
2019-03-16T00:10:27.487Z,6.49
2019-03-16T00:11:27.578Z,6.44
2019-03-16T00:12:27.684Z,6.44
2019-03-16T00:13:27.485Z,6.41
2019-03-16T00:14:27.442Z,6.44
2019-03-16T00:15:27.431Z,6.44
2019-03-16T00:16:27.481Z,6.44
2019-03-16T00:17:27.437Z,6.49
2019-03-16T00:18:27.412Z,6.49
2019-03-16T00:19:27.445Z,6.44
2019-03-16T00:20:27.378Z,6.56
2019-03-16T00:21:27.379Z,6.56
2019-03-16T00:22:27.362Z,6.59
2019-03-16T00:23:27.405Z,6.49
2019-03-16T00:24:27.335Z,6.52
2019-03-16T00:25:27.372Z,6.54
2019-03-16T00:26:27.361Z,6.57
2019-03-16T00:27:27.423Z,6.57
2019-03-16T00:28:27.320Z,6.57
2019-03-16T00:29:27.291Z,6.62
2019-03-16T00:30:27.268Z,6.56
2019-03-16T00:31:27.285Z,6.64
2019-03-16T00:32:27.258Z,6.60
2019-03-16T00:33:27.288Z,6.60
2019-03-16T00:34:27.287Z,6.64
2019-03-16T00:35:27.271Z,6.69
2019-03-16T00:36:27.225Z,6.67
2019-03-16T00:37:27.199Z,6.62
2019-03-16T00:38:27.210Z,6.62
2019-03-16T00:39:27.179Z,6.64
2019-03-16T00:40:27.183Z,6.56
2019-03-16T00:41:27.223Z,6.67
2019-03-16T00:42:27.169Z,6.62
2019-03-16T00:43:27.132Z,6.69
2019-03-16T00:44:27.122Z,6.75
2019-03-16T00:45:27.140Z,6.70
2019-03-16T00:46:27.114Z,6.78
2019-03-16T00:47:27.144Z,6.75
2019-03-16T00:48:27.078Z,6.69
2019-03-16T00:49:27.068Z,6.69
2019-03-16T00:50:27.051Z,6.64
2019-03-16T00:51:27.134Z,6.54
2019-03-16T00:52:27.083Z,6.57
2019-03-16T00:53:27.022Z,6.60
2019-03-16T00:54:27.018Z,6.62
2019-03-16T00:55:27.036Z,6.67
2019-03-16T00:56:27.015Z,6.62
2019-03-16T00:57:27.008Z,6.59
2019-03-16T00:58:27.004Z,6.59
2019-03-16T00:59:27.005Z,6.56
2019-03-16T01:00:26.943Z,6.51
2019-03-16T01:01:26.998Z,6.56
2019-03-16T01:02:27.684Z,6.52
2019-03-16T01:03:26.926Z,6.52
2019-03-16T01:04:26.968Z,6.51
2019-03-16T01:05:26.895Z,6.44
2019-03-16T01:06:26.922Z,6.41
2019-03-16T01:07:26.892Z,6.35
2019-03-16T01:08:26.923Z,6.36
2019-03-16T01:09:26.860Z,6.39
2019-03-16T01:10:26.885Z,6.39
2019-03-16T01:11:26.824Z,6.36
2019-03-16T01:12:26.884Z,6.36
2019-03-16T01:13:26.816Z,6.33
2019-03-16T01:14:26.807Z,6.30
2019-03-16T01:15:26.819Z,6.19
2019-03-16T01:16:26.777Z,6.26
2019-03-16T01:17:26.847Z,6.30
2019-03-16T01:18:26.774Z,6.36
2019-03-16T01:19:26.738Z,6.28
2019-03-16T01:20:26.827Z,6.17
2019-03-16T01:21:26.746Z,6.20
2019-03-16T01:22:26.783Z,6.22
2019-03-16T01:23:26.715Z,6.30
2019-03-16T01:24:26.752Z,6.26
2019-03-16T01:25:26.722Z,6.08
2019-03-16T01:26:26.665Z,6.08
2019-03-16T01:27:26.690Z,6.11
2019-03-16T01:28:26.647Z,6.12
2019-03-16T01:29:26.659Z,6.12
2019-03-16T01:30:26.679Z,6.09
2019-03-16T01:31:26.735Z,6.08
2019-03-16T01:32:39.749Z,6.07
2019-03-16T01:33:27.595Z,6.09
2019-03-16T01:34:26.626Z,6.14
2019-03-16T01:35:26.573Z,6.08
2019-03-16T01:36:26.608Z,6.08
2019-03-16T01:37:26.576Z,6.05
2019-03-16T01:38:26.682Z,6.09
2019-03-16T01:39:26.578Z,5.97
2019-03-16T01:40:26.652Z,6.02
2019-03-16T01:41:26.598Z,6.08
2019-03-16T01:42:26.554Z,6.05
2019-03-16T01:43:26.547Z,6.05
2019-03-16T01:44:26.508Z,6.02
2019-03-16T01:45:26.501Z,6.02
2019-03-16T01:46:26.465Z,5.98
2019-03-16T01:47:26.463Z,6.01
2019-03-16T01:48:26.461Z,6.04
2019-03-16T01:49:26.478Z,6.08
2019-03-16T01:50:26.472Z,5.99
2019-03-16T01:51:26.403Z,6.02
2019-03-16T01:52:26.464Z,6.07
2019-03-16T01:53:26.423Z,6.02
2019-03-16T01:54:26.372Z,5.98
2019-03-16T01:55:26.431Z,5.99
2019-03-16T01:56:26.417Z,6.01
2019-03-16T01:57:26.438Z,6.01
2019-03-16T01:58:26.333Z,5.94
2019-03-16T01:59:26.449Z,5.91
2019-03-16T02:00:26.329Z,5.98
2019-03-16T02:01:26.328Z,5.93
2019-03-16T02:02:26.310Z,5.94
2019-03-16T02:03:26.324Z,5.94
2019-03-16T02:04:26.328Z,6.01
2019-03-16T02:05:26.289Z,5.98
2019-03-16T02:06:26.247Z,5.97
2019-03-16T02:07:26.281Z,5.98
2019-03-16T02:08:26.226Z,5.99
2019-03-16T02:09:26.215Z,5.93
2019-03-16T02:10:26.224Z,5.93
2019-03-16T02:11:26.310Z,5.94
2019-03-16T02:12:26.258Z,5.98
2019-03-16T02:13:26.177Z,5.91
2019-03-16T02:14:26.215Z,5.93
2019-03-16T02:15:26.182Z,5.94
2019-03-16T02:16:26.222Z,5.98
2019-03-16T02:17:26.195Z,5.86
2019-03-16T02:18:26.230Z,5.83
2019-03-16T02:19:26.392Z,5.84
2019-03-16T02:20:26.103Z,5.79
2019-03-16T02:21:26.093Z,5.93
2019-03-16T02:22:26.150Z,5.82
2019-03-16T02:23:26.164Z,5.89
2019-03-16T02:24:26.090Z,5.83
2019-03-16T02:25:26.114Z,5.76
2019-03-16T02:26:26.094Z,5.82
2019-03-16T02:27:26.108Z,5.73
2019-03-16T02:28:26.048Z,5.79
2019-03-16T02:29:26.008Z,5.73
2019-03-16T02:30:26.103Z,5.73
2019-03-16T02:31:26.097Z,5.72
2019-03-16T02:32:26.128Z,5.69
2019-03-16T02:33:25.982Z,5.79
2019-03-16T02:34:26.026Z,5.80
2019-03-16T02:35:25.952Z,5.79
2019-03-16T02:36:25.940Z,5.82
2019-03-16T02:37:25.939Z,5.72
2019-03-16T02:38:25.936Z,5.75
2019-03-16T02:39:25.915Z,5.66
2019-03-16T02:40:25.907Z,5.61
2019-03-16T02:41:25.925Z,5.65
2019-03-16T02:42:25.898Z,5.71
2019-03-16T02:43:25.890Z,5.71
2019-03-16T02:44:25.853Z,5.76
2019-03-16T02:45:25.886Z,5.69
2019-03-16T02:46:25.867Z,5.69
2019-03-16T02:47:25.872Z,5.79
2019-03-16T02:48:25.850Z,5.64
2019-03-16T02:49:25.889Z,5.65
2019-03-16T02:50:25.783Z,5.61
2019-03-16T02:51:25.778Z,5.62
2019-03-16T02:52:25.818Z,5.62
2019-03-16T02:53:25.782Z,5.68
2019-03-16T02:54:25.785Z,5.64
2019-03-16T02:55:25.743Z,5.73
2019-03-16T02:56:25.807Z,5.69
2019-03-16T02:57:25.769Z,5.72
2019-03-16T02:58:25.704Z,5.69
2019-03-16T02:59:25.726Z,5.71
2019-03-16T03:00:25.692Z,5.76
2019-03-16T03:01:25.730Z,5.72
2019-03-16T03:02:25.707Z,5.68
2019-03-16T03:03:29.948Z,5.75
2019-03-16T03:04:25.656Z,5.84
2019-03-16T03:05:25.684Z,5.72
2019-03-16T03:06:25.618Z,5.76
2019-03-16T03:07:25.641Z,5.76
2019-03-16T03:08:25.635Z,5.82
2019-03-16T03:09:25.603Z,5.80
2019-03-16T03:10:25.580Z,5.72
2019-03-16T03:11:25.659Z,5.76
2019-03-16T03:12:25.575Z,5.72
2019-03-16T03:13:25.567Z,5.79
2019-03-16T03:14:25.534Z,5.82
2019-03-16T03:15:25.541Z,5.79
2019-03-16T03:16:25.580Z,5.73
2019-03-16T03:17:25.549Z,5.72
2019-03-16T03:18:25.560Z,5.73
2019-03-16T03:19:25.585Z,5.73
2019-03-16T03:20:25.484Z,5.79
2019-03-16T03:21:25.455Z,5.76
2019-03-16T03:22:25.513Z,5.72
2019-03-16T03:23:25.492Z,5.80
2019-03-16T03:24:25.484Z,5.71
2019-03-16T03:25:25.476Z,5.72
2019-03-16T03:26:25.474Z,5.72
2019-03-16T03:27:25.506Z,5.62
2019-03-16T03:28:25.493Z,5.68
2019-03-16T03:29:25.590Z,5.71
2019-03-16T03:30:25.424Z,5.65
2019-03-16T03:31:25.443Z,5.59
2019-03-16T03:32:25.410Z,5.64
2019-03-16T03:33:25.485Z,5.65
2019-03-16T03:34:25.336Z,5.57
2019-03-16T03:35:29.281Z,5.69
2019-03-16T03:36:25.389Z,5.68
2019-03-16T03:37:25.309Z,5.62
2019-03-16T03:38:25.299Z,5.62
2019-03-16T03:39:25.319Z,5.59
2019-03-16T03:40:25.291Z,5.65
2019-03-16T03:41:25.259Z,5.65
2019-03-16T03:42:25.321Z,5.64
2019-03-16T03:43:25.282Z,5.59
2019-03-16T03:44:25.225Z,5.66
2019-03-16T03:45:25.335Z,5.66
2019-03-16T03:46:25.219Z,5.61
2019-03-16T03:47:25.226Z,5.72
2019-03-16T03:48:25.252Z,5.62
2019-03-16T03:49:25.187Z,5.72
2019-03-16T03:50:25.158Z,5.72
2019-03-16T03:51:25.197Z,5.75
2019-03-16T03:52:25.139Z,5.66
2019-03-16T03:53:25.144Z,5.65
2019-03-16T03:54:25.120Z,5.64
2019-03-16T03:55:25.146Z,5.59
2019-03-16T03:56:25.092Z,5.66
2019-03-16T03:57:25.087Z,5.59
2019-03-16T03:58:25.165Z,5.72
2019-03-16T03:59:25.068Z,5.75
2019-03-16T04:00:25.265Z,5.65
2019-03-16T04:01:25.092Z,5.76
2019-03-16T04:02:25.079Z,5.73
2019-03-16T04:03:25.143Z,5.73
2019-03-16T04:04:25.018Z,5.59
2019-03-16T04:05:25.072Z,5.66
2019-03-16T04:06:25.019Z,5.69
2019-03-16T04:07:25.015Z,5.71
2019-03-16T04:08:25.008Z,5.72
2019-03-16T04:09:24.964Z,5.71
2019-03-16T04:10:24.945Z,5.76
2019-03-16T04:11:24.934Z,5.76
2019-03-16T04:12:24.940Z,5.72
2019-03-16T04:13:24.970Z,5.73
2019-03-16T04:14:24.898Z,5.69
2019-03-16T04:15:24.952Z,5.76
2019-03-16T04:16:24.925Z,5.69
2019-03-16T04:17:24.884Z,5.80
2019-03-16T04:18:24.896Z,5.76
2019-03-16T04:19:24.880Z,5.79
2019-03-16T04:20:24.952Z,5.72
2019-03-16T04:21:24.926Z,5.84
2019-03-16T04:22:24.851Z,5.83
2019-03-16T04:23:24.816Z,5.76
2019-03-16T04:24:25.161Z,5.83
2019-03-16T04:25:24.814Z,5.86
2019-03-16T04:26:24.787Z,5.82
2019-03-16T04:27:24.813Z,5.79
2019-03-16T04:28:24.758Z,5.82
2019-03-16T04:29:24.814Z,5.82
2019-03-16T04:30:24.758Z,5.83
2019-03-16T04:31:24.777Z,5.80
2019-03-16T04:32:24.741Z,5.87
2019-03-16T04:33:24.739Z,5.80
2019-03-16T04:34:29.593Z,5.84
2019-03-16T04:35:25.682Z,5.93
2019-03-16T04:36:24.677Z,5.87
2019-03-16T04:37:24.718Z,5.87
2019-03-16T04:38:24.652Z,5.98
2019-03-16T04:39:24.742Z,5.91
2019-03-16T04:40:24.649Z,5.90
2019-03-16T04:41:24.669Z,5.93
2019-03-16T04:42:24.611Z,5.90
2019-03-16T04:43:24.635Z,5.84
2019-03-16T04:44:24.614Z,5.84
2019-03-16T04:45:24.777Z,5.93
2019-03-16T04:46:24.570Z,5.86
2019-03-16T04:47:24.569Z,5.89
2019-03-16T04:48:24.577Z,5.86
2019-03-16T04:49:24.563Z,5.89
2019-03-16T04:50:24.527Z,5.91
2019-03-16T04:51:24.563Z,5.90
2019-03-16T04:52:24.535Z,5.87
2019-03-16T04:53:24.551Z,5.90
2019-03-16T04:54:24.523Z,5.97
2019-03-16T04:55:24.470Z,5.91
2019-03-16T04:56:24.461Z,5.91
2019-03-16T04:57:24.451Z,5.93
2019-03-16T04:58:24.495Z,5.94
2019-03-16T04:59:24.447Z,5.97
2019-03-16T05:00:24.419Z,5.91
2019-03-16T05:01:24.409Z,5.89
2019-03-16T05:02:24.436Z,6.01
2019-03-16T05:03:24.435Z,6.02
2019-03-16T05:04:24.406Z,6.02
2019-03-16T05:05:24.408Z,5.99
2019-03-16T05:06:24.357Z,6.09
2019-03-16T05:07:24.360Z,6.05
2019-03-16T05:08:24.335Z,6.09
2019-03-16T05:09:24.373Z,6.05
2019-03-16T05:10:24.329Z,6.05
2019-03-16T05:11:24.377Z,6.08
2019-03-16T05:12:24.292Z,6.07
2019-03-16T05:13:24.291Z,6.04
2019-03-16T05:14:24.383Z,6.11
2019-03-16T05:15:24.278Z,6.07
2019-03-16T05:16:24.313Z,6.09
2019-03-16T05:17:24.261Z,6.08
2019-03-16T05:18:24.231Z,6.08
2019-03-16T05:19:24.223Z,6.08
2019-03-16T05:20:24.287Z,6.09
2019-03-16T05:21:24.207Z,6.05
2019-03-16T05:22:24.236Z,6.14
2019-03-16T05:23:24.192Z,6.11
2019-03-16T05:24:24.205Z,6.14
2019-03-16T05:25:24.208Z,6.17
2019-03-16T05:26:24.172Z,6.09
2019-03-16T05:27:24.164Z,6.12
2019-03-16T05:28:24.122Z,6.07
2019-03-16T05:29:24.124Z,6.09
2019-03-16T05:30:24.118Z,6.14
2019-03-16T05:31:24.118Z,6.20
2019-03-16T05:32:24.084Z,6.12
2019-03-16T05:33:24.085Z,6.16
2019-03-16T05:34:24.062Z,6.17
2019-03-16T05:35:24.129Z,6.16
2019-03-16T05:36:24.041Z,6.08
2019-03-16T05:37:24.054Z,6.17
2019-03-16T05:38:24.020Z,6.14
2019-03-16T05:39:24.006Z,6.14
2019-03-16T05:40:24.075Z,5.98
2019-03-16T05:41:23.987Z,6.11
2019-03-16T05:42:24.000Z,6.20
2019-03-16T05:43:23.969Z,6.19
2019-03-16T05:44:24.030Z,6.20
2019-03-16T05:45:23.970Z,6.09
2019-03-16T05:46:23.957Z,6.17
2019-03-16T05:47:24.013Z,6.12
2019-03-16T05:48:23.915Z,6.11
2019-03-16T05:49:23.902Z,6.16
2019-03-16T05:50:23.989Z,6.19
2019-03-16T05:51:23.913Z,6.26
2019-03-16T05:52:23.912Z,6.26
2019-03-16T05:53:23.946Z,6.24
2019-03-16T05:54:23.854Z,6.09
2019-03-16T05:55:24.010Z,6.27
2019-03-16T05:56:23.847Z,6.24
2019-03-16T05:57:23.855Z,6.22
2019-03-16T05:58:23.836Z,6.17
2019-03-16T05:59:23.804Z,6.22
2019-03-16T06:00:23.806Z,6.17
2019-03-16T06:01:23.811Z,6.28
2019-03-16T06:02:23.789Z,6.22
2019-03-16T06:03:23.774Z,6.33
2019-03-16T06:04:23.773Z,6.31
2019-03-16T06:05:23.783Z,6.20
2019-03-16T06:06:23.730Z,6.19
2019-03-16T06:07:23.808Z,6.22
2019-03-16T06:08:23.722Z,6.24
2019-03-16T06:09:23.785Z,6.22
2019-03-16T06:10:23.757Z,6.24
2019-03-16T06:11:23.670Z,6.26
2019-03-16T06:12:23.660Z,6.19
2019-03-16T06:13:23.649Z,6.19
2019-03-16T06:14:23.659Z,6.17
2019-03-16T06:15:23.667Z,6.26
2019-03-16T06:16:23.657Z,6.26
2019-03-16T06:17:23.606Z,6.14
2019-03-16T06:18:23.596Z,6.30
2019-03-16T06:19:23.587Z,6.27
2019-03-16T06:20:23.600Z,6.14
2019-03-16T06:21:23.594Z,6.30
2019-03-16T06:22:23.593Z,6.26
2019-03-16T06:23:23.548Z,6.30
2019-03-16T06:24:23.529Z,6.24
2019-03-16T06:25:23.620Z,6.16
2019-03-16T06:26:23.584Z,6.16
2019-03-16T06:27:23.548Z,6.24
2019-03-16T06:28:23.491Z,6.26
2019-03-16T06:29:23.535Z,6.19
2019-03-16T06:30:23.492Z,6.24
2019-03-16T06:31:23.494Z,6.16
2019-03-16T06:32:23.481Z,6.16
2019-03-16T06:33:23.499Z,6.20
2019-03-16T06:34:23.427Z,6.30
2019-03-16T06:35:27.807Z,6.31
2019-03-16T06:36:24.403Z,6.26
2019-03-16T06:37:23.415Z,6.20
2019-03-16T06:38:23.398Z,6.36
2019-03-16T06:39:23.403Z,6.39
2019-03-16T06:40:23.364Z,6.35
2019-03-16T06:41:23.394Z,6.33
2019-03-16T06:42:23.345Z,6.35
2019-03-16T06:43:23.336Z,6.36
2019-03-16T06:44:23.325Z,6.35
2019-03-16T06:45:23.326Z,6.28
2019-03-16T06:46:23.319Z,6.35
2019-03-16T06:47:23.377Z,6.33
2019-03-16T06:48:23.312Z,6.35
2019-03-16T06:49:23.265Z,6.35
2019-03-16T06:50:23.293Z,6.36
2019-03-16T06:51:23.267Z,6.30
2019-03-16T06:52:23.306Z,6.31
2019-03-16T06:53:23.276Z,6.38
2019-03-16T06:54:23.246Z,6.35
2019-03-16T06:55:23.238Z,6.39
2019-03-16T06:56:23.326Z,6.38
2019-03-16T06:57:23.279Z,6.45
2019-03-16T06:58:23.259Z,6.30
2019-03-16T06:59:23.192Z,6.36
2019-03-16T07:00:23.191Z,6.39
2019-03-16T07:01:23.313Z,6.35
2019-03-16T07:02:23.152Z,6.42
2019-03-16T07:03:23.128Z,6.36
2019-03-16T07:04:23.171Z,6.46
2019-03-16T07:05:25.046Z,6.44
2019-03-16T07:06:24.106Z,6.38
2019-03-16T07:07:23.077Z,6.39
2019-03-16T07:08:23.115Z,6.45
2019-03-16T07:09:23.050Z,6.52
2019-03-16T07:10:23.085Z,6.48
2019-03-16T07:11:23.046Z,6.52
2019-03-16T07:12:23.018Z,6.48
2019-03-16T07:13:23.075Z,6.49
2019-03-16T07:14:23.023Z,6.45
2019-03-16T07:15:22.994Z,6.51
2019-03-16T07:16:23.223Z,6.44
2019-03-16T07:17:23.063Z,6.48
2019-03-16T07:18:22.961Z,6.49
2019-03-16T07:19:23.059Z,6.49
2019-03-16T07:20:22.931Z,6.52
2019-03-16T07:21:23.027Z,6.63
2019-03-16T07:22:22.927Z,6.59
2019-03-16T07:23:23.106Z,6.54
2019-03-16T07:24:22.891Z,6.59
2019-03-16T07:25:22.888Z,6.63
2019-03-16T07:26:22.958Z,6.75
2019-03-16T07:27:26.335Z,6.66
2019-03-16T07:28:22.914Z,6.75
2019-03-16T07:29:22.844Z,6.75
2019-03-16T07:30:22.842Z,6.75
2019-03-16T07:31:22.896Z,6.74
2019-03-16T07:32:22.851Z,6.92
2019-03-16T07:33:22.836Z,6.78
2019-03-16T07:34:22.858Z,6.92
2019-03-16T07:35:22.770Z,6.95
2019-03-16T07:36:22.825Z,7.02
2019-03-16T07:37:22.758Z,7.14
2019-03-16T07:38:22.783Z,7.13
2019-03-16T07:39:22.766Z,7.14
2019-03-16T07:40:22.726Z,7.21
2019-03-16T07:41:22.828Z,7.25
2019-03-16T07:42:22.719Z,7.25
2019-03-16T07:43:22.717Z,7.32
2019-03-16T07:44:22.683Z,7.33
2019-03-16T07:45:22.687Z,7.47
2019-03-16T07:46:22.772Z,7.43
2019-03-16T07:47:22.647Z,7.50
2019-03-16T07:48:22.639Z,7.50
2019-03-16T07:49:22.666Z,7.48
2019-03-16T07:50:22.643Z,7.60
2019-03-16T07:51:22.657Z,7.54
2019-03-16T07:52:22.626Z,7.63
2019-03-16T07:53:22.636Z,7.66
2019-03-16T07:54:22.678Z,7.72
2019-03-16T07:55:22.592Z,7.70
2019-03-16T07:56:22.596Z,7.73
2019-03-16T07:57:22.536Z,7.75
2019-03-16T07:58:22.532Z,7.72
2019-03-16T07:59:22.557Z,7.76
2019-03-16T08:00:22.553Z,7.80
2019-03-16T08:01:22.520Z,7.79
2019-03-16T08:02:22.489Z,7.80
2019-03-16T08:03:22.517Z,7.82
2019-03-16T08:04:22.463Z,7.88
2019-03-16T08:05:22.510Z,7.83
2019-03-16T08:06:22.475Z,7.91
2019-03-16T08:07:22.484Z,7.90
2019-03-16T08:08:22.486Z,7.93
2019-03-16T08:09:22.478Z,7.94
2019-03-16T08:10:22.410Z,7.95
2019-03-16T08:11:22.471Z,7.97
2019-03-16T08:12:22.399Z,7.98
2019-03-16T08:13:22.365Z,8.05
2019-03-16T08:14:22.366Z,8.00
2019-03-16T08:15:22.492Z,8.09
2019-03-16T08:16:22.545Z,8.10
2019-03-16T08:17:22.368Z,8.20
2019-03-16T08:18:22.366Z,8.12
2019-03-16T08:19:22.357Z,8.15
2019-03-16T08:20:22.396Z,8.26
2019-03-16T08:21:22.312Z,8.26
2019-03-16T08:22:22.289Z,8.20
2019-03-16T08:23:22.278Z,8.23
2019-03-16T08:24:22.413Z,8.23
2019-03-16T08:25:22.305Z,8.26
2019-03-16T08:26:22.290Z,8.28
2019-03-16T08:27:22.274Z,8.33
2019-03-16T08:28:22.234Z,8.19
2019-03-16T08:29:22.279Z,8.26
2019-03-16T08:30:23.713Z,8.24
2019-03-16T08:31:22.198Z,8.31
2019-03-16T08:32:25.233Z,8.26
2019-03-16T08:33:22.198Z,8.18
2019-03-16T08:34:22.256Z,8.23
2019-03-16T08:35:22.132Z,8.26
2019-03-16T08:36:22.120Z,8.12
2019-03-16T08:37:22.181Z,8.26
2019-03-16T08:38:22.149Z,8.23
2019-03-16T08:39:22.179Z,8.30
2019-03-16T08:40:22.166Z,8.34
2019-03-16T08:41:22.112Z,8.36
2019-03-16T08:42:22.161Z,8.31
2019-03-16T08:43:22.106Z,8.36
2019-03-16T08:44:22.049Z,8.41
2019-03-16T08:45:22.075Z,8.30
2019-03-16T08:46:22.118Z,8.36
2019-03-16T08:47:22.072Z,8.26
2019-03-16T08:48:23.350Z,8.30
2019-03-16T08:49:22.060Z,8.26
2019-03-16T08:50:21.973Z,8.27
2019-03-16T08:51:21.967Z,8.18
2019-03-16T08:52:21.996Z,8.30
2019-03-16T08:53:23.042Z,8.30
2019-03-16T08:54:21.930Z,8.26
2019-03-16T08:55:21.994Z,8.37
2019-03-16T08:56:21.959Z,8.31
2019-03-16T08:57:21.976Z,8.37
2019-03-16T08:58:21.947Z,8.36
2019-03-16T08:59:24.354Z,8.48
2019-03-16T09:00:21.967Z,8.51
2019-03-16T09:01:21.938Z,8.41
2019-03-16T09:02:21.916Z,8.45
2019-03-16T09:03:21.879Z,8.38
2019-03-16T09:04:21.838Z,8.42
2019-03-16T09:05:21.916Z,8.41
2019-03-16T09:06:21.801Z,8.36
2019-03-16T09:07:21.856Z,8.41
2019-03-16T09:08:21.862Z,8.37
2019-03-16T09:09:21.769Z,8.37
2019-03-16T09:10:21.764Z,8.41
2019-03-16T09:11:21.824Z,8.44
2019-03-16T09:12:21.786Z,8.28
2019-03-16T09:13:21.725Z,8.37
2019-03-16T09:14:21.717Z,8.45
2019-03-16T09:15:21.717Z,8.49
2019-03-16T09:16:21.717Z,8.55
2019-03-16T09:17:21.721Z,8.45
2019-03-16T09:18:21.685Z,8.41
2019-03-16T09:19:21.668Z,8.46
2019-03-16T09:20:21.713Z,8.41
2019-03-16T09:21:21.637Z,8.42
2019-03-16T09:22:21.660Z,8.42
2019-03-16T09:23:21.627Z,8.44
2019-03-16T09:24:21.605Z,8.45
2019-03-16T09:25:21.601Z,8.37
2019-03-16T09:26:21.640Z,8.42
2019-03-16T09:27:30.594Z,8.37
2019-03-16T09:28:22.613Z,8.45
2019-03-16T09:29:21.562Z,8.38
2019-03-16T09:30:21.600Z,8.41
2019-03-16T09:31:21.567Z,8.38
2019-03-16T09:32:21.534Z,8.42
2019-03-16T09:33:21.813Z,8.51
2019-03-16T09:34:21.570Z,8.51
2019-03-16T09:35:21.489Z,8.52
2019-03-16T09:36:21.488Z,8.46
2019-03-16T09:37:21.479Z,8.45
2019-03-16T09:38:21.498Z,8.42
2019-03-16T09:39:21.516Z,8.44
2019-03-16T09:40:21.714Z,8.48
2019-03-16T09:41:21.440Z,8.51
2019-03-16T09:42:21.477Z,8.46
2019-03-16T09:43:21.441Z,8.41
2019-03-16T09:44:21.472Z,8.33
2019-03-16T09:45:21.470Z,8.51
2019-03-16T09:46:21.456Z,8.51
2019-03-16T09:47:21.370Z,8.51
2019-03-16T09:48:21.466Z,8.49
2019-03-16T09:49:21.425Z,8.52
2019-03-16T09:50:21.361Z,8.56
2019-03-16T09:51:21.325Z,8.60
2019-03-16T09:52:21.328Z,8.64
2019-03-16T09:53:21.417Z,8.70
2019-03-16T09:54:21.287Z,8.56
2019-03-16T09:55:21.284Z,8.67
2019-03-16T09:56:21.321Z,8.61
2019-03-16T09:57:21.307Z,8.56
2019-03-16T09:58:30.788Z,8.52
2019-03-16T09:59:22.281Z,8.56
2019-03-16T10:00:21.235Z,8.56
2019-03-16T10:01:21.370Z,8.63
2019-03-16T10:02:21.206Z,8.64
2019-03-16T10:03:21.239Z,8.70
2019-03-16T10:04:21.266Z,8.79
2019-03-16T10:05:21.223Z,8.84
2019-03-16T10:06:21.266Z,8.85
2019-03-16T10:07:21.162Z,8.94
2019-03-16T10:08:21.160Z,9.00
2019-03-16T10:09:21.150Z,8.99
2019-03-16T10:10:21.214Z,9.02
2019-03-16T10:11:21.127Z,8.97
2019-03-16T10:12:21.097Z,9.02
2019-03-16T10:13:21.146Z,9.02
2019-03-16T10:14:21.083Z,9.00
2019-03-16T10:15:21.109Z,8.87
2019-03-16T10:16:21.091Z,8.84
2019-03-16T10:17:21.042Z,8.89
2019-03-16T10:18:21.077Z,8.84
2019-03-16T10:19:21.070Z,8.88
2019-03-16T10:20:21.079Z,8.87
2019-03-16T10:21:21.066Z,8.87
2019-03-16T10:22:21.243Z,8.74
2019-03-16T10:23:21.005Z,8.79
2019-03-16T10:24:21.033Z,8.82
2019-03-16T10:25:20.977Z,8.88
2019-03-16T10:26:20.961Z,8.91
2019-03-16T10:27:20.971Z,8.91
2019-03-16T10:28:20.994Z,8.87
2019-03-16T10:29:20.920Z,8.89
2019-03-16T10:30:20.919Z,8.85
2019-03-16T10:31:21.059Z,8.87
2019-03-16T10:32:20.917Z,8.84
2019-03-16T10:33:20.959Z,8.87
2019-03-16T10:34:20.871Z,8.89
2019-03-16T10:35:20.889Z,8.87
2019-03-16T10:36:20.841Z,8.89
2019-03-16T10:37:20.914Z,8.87
2019-03-16T10:38:20.925Z,8.87
2019-03-16T10:39:20.814Z,9.16
2019-03-16T10:40:20.801Z,9.21
2019-03-16T10:41:20.803Z,9.21
2019-03-16T10:42:20.828Z,9.18
2019-03-16T10:43:21.205Z,9.14
2019-03-16T10:44:20.846Z,9.18
2019-03-16T10:45:20.885Z,9.14
2019-03-16T10:46:20.831Z,9.14
2019-03-16T10:47:20.724Z,9.21
2019-03-16T10:48:20.786Z,9.18
2019-03-16T10:49:20.779Z,9.22
2019-03-16T10:50:20.753Z,9.14
2019-03-16T10:51:20.688Z,9.16
2019-03-16T10:52:20.720Z,9.13
2019-03-16T10:53:20.788Z,9.16
2019-03-16T10:54:20.775Z,9.14
2019-03-16T10:55:20.639Z,9.10
2019-03-16T10:56:20.642Z,9.34
2019-03-16T10:57:20.726Z,9.23
2019-03-16T10:58:20.675Z,9.21
2019-03-16T10:59:20.652Z,9.37
2019-03-16T11:00:20.602Z,9.41
2019-03-16T11:01:20.608Z,9.50
2019-03-16T11:02:20.620Z,9.62
2019-03-16T11:03:20.658Z,9.66
2019-03-16T11:04:20.656Z,9.84
2019-03-16T11:05:20.598Z,9.89
2019-03-16T11:06:20.571Z,9.86
2019-03-16T11:07:20.553Z,9.84
2019-03-16T11:08:20.540Z,9.73
2019-03-16T11:09:20.526Z,9.62
2019-03-16T11:10:20.506Z,9.47
2019-03-16T11:11:20.502Z,9.44
2019-03-16T11:12:20.510Z,9.34
2019-03-16T11:13:20.446Z,9.36
2019-03-16T11:14:20.503Z,9.29
2019-03-16T11:15:20.522Z,9.18
2019-03-16T11:16:20.444Z,9.29
2019-03-16T11:17:20.441Z,9.29
2019-03-16T11:18:20.439Z,9.29
2019-03-16T11:19:20.435Z,9.16
2019-03-16T11:20:20.372Z,9.11
2019-03-16T11:21:20.365Z,9.10
2019-03-16T11:22:20.422Z,9.04
2019-03-16T11:23:20.396Z,9.13
2019-03-16T11:24:20.358Z,9.06
2019-03-16T11:25:20.557Z,9.02
2019-03-16T11:26:20.305Z,9.00
2019-03-16T11:27:20.388Z,8.95
2019-03-16T11:28:20.297Z,9.13
2019-03-16T11:29:20.445Z,9.22
2019-03-16T11:30:20.325Z,9.14
2019-03-16T11:31:20.272Z,9.16
2019-03-16T11:32:20.375Z,9.10
2019-03-16T11:33:20.254Z,9.21
2019-03-16T11:34:20.333Z,9.16
2019-03-16T11:35:20.249Z,9.19
2019-03-16T11:36:20.205Z,9.14
2019-03-16T11:37:20.257Z,9.11
2019-03-16T11:38:20.237Z,9.10
2019-03-16T11:39:20.201Z,9.06
2019-03-16T11:40:20.161Z,9.03
2019-03-16T11:41:20.342Z,9.10
2019-03-16T11:42:20.237Z,9.04
2019-03-16T11:43:20.192Z,9.03
2019-03-16T11:44:20.202Z,8.94
2019-03-16T11:45:20.164Z,8.87
2019-03-16T11:46:20.382Z,8.91
2019-03-16T11:47:20.122Z,8.88
2019-03-16T11:48:20.115Z,8.94
2019-03-16T11:49:20.116Z,8.84
2019-03-16T11:50:20.084Z,8.87
2019-03-16T11:51:20.054Z,8.88
2019-03-16T11:52:20.063Z,8.85
2019-03-16T11:53:20.131Z,8.81
2019-03-16T11:54:20.136Z,8.85
2019-03-16T11:55:20.010Z,8.87
2019-03-16T11:56:20.007Z,8.88
2019-03-16T11:57:20.000Z,8.88
2019-03-16T11:58:19.966Z,8.87
2019-03-16T11:59:21.917Z,8.88
2019-03-16T12:00:20.131Z,8.91
2019-03-16T12:01:19.997Z,8.85
2019-03-16T12:02:19.986Z,8.91
2019-03-16T12:03:20.009Z,8.99
2019-03-16T12:04:19.992Z,8.91
2019-03-16T12:05:19.913Z,8.88
2019-03-16T12:06:19.946Z,8.88
2019-03-16T12:07:19.895Z,8.85
2019-03-16T12:08:19.920Z,8.88
2019-03-16T12:09:19.879Z,8.84
2019-03-16T12:10:19.846Z,8.85
2019-03-16T12:11:19.915Z,8.89
2019-03-16T12:12:19.848Z,8.87
2019-03-16T12:13:20.150Z,8.91
2019-03-16T12:14:19.864Z,8.92
2019-03-16T12:15:19.806Z,8.91
2019-03-16T12:16:19.830Z,9.00
2019-03-16T12:17:19.862Z,8.85
2019-03-16T12:18:19.801Z,8.87
2019-03-16T12:19:19.750Z,8.85
2019-03-16T12:20:19.850Z,8.87
2019-03-16T12:21:19.730Z,8.87
2019-03-16T12:22:19.741Z,8.87
2019-03-16T12:23:19.706Z,8.87
2019-03-16T12:24:19.745Z,8.89
2019-03-16T12:25:19.752Z,8.88
2019-03-16T12:26:20.298Z,8.89
2019-03-16T12:27:19.657Z,8.95
2019-03-16T12:28:19.843Z,8.85
2019-03-16T12:29:19.648Z,8.84
2019-03-16T12:30:19.680Z,8.89
2019-03-16T12:31:19.620Z,8.88
2019-03-16T12:32:19.662Z,8.95
2019-03-16T12:33:19.659Z,8.95
2019-03-16T12:34:19.689Z,9.00
2019-03-16T12:35:19.645Z,8.88
2019-03-16T12:36:19.677Z,8.87
2019-03-16T12:37:19.557Z,8.81
2019-03-16T12:38:19.670Z,8.82
2019-03-16T12:39:19.567Z,8.78
2019-03-16T12:40:19.563Z,8.79
2019-03-16T12:41:19.520Z,8.78
2019-03-16T12:42:19.578Z,8.67
2019-03-16T12:43:19.485Z,8.64
2019-03-16T12:44:19.475Z,8.70
2019-03-16T12:45:20.808Z,8.61
2019-03-16T12:46:19.499Z,8.69
2019-03-16T12:47:19.455Z,8.70
2019-03-16T12:48:19.430Z,8.70
2019-03-16T12:49:19.650Z,8.67
2019-03-16T12:50:19.428Z,8.74
2019-03-16T12:51:19.403Z,8.78
2019-03-16T12:52:19.393Z,8.85
2019-03-16T12:53:19.408Z,8.85
2019-03-16T12:54:19.367Z,8.92
2019-03-16T12:55:19.377Z,8.94
2019-03-16T12:56:19.347Z,8.99
2019-03-16T12:57:19.337Z,9.00
2019-03-16T12:58:19.332Z,9.10
2019-03-16T12:59:19.358Z,9.08
2019-03-16T13:00:19.432Z,9.04
2019-03-16T13:01:19.300Z,9.08
2019-03-16T13:02:19.283Z,9.08
2019-03-16T13:03:19.274Z,9.00
2019-03-16T13:04:19.261Z,8.97
2019-03-16T13:05:19.332Z,8.94
2019-03-16T13:06:19.340Z,8.88
2019-03-16T13:07:19.237Z,8.82
2019-03-16T13:08:19.225Z,8.78
2019-03-16T13:09:19.209Z,8.76
2019-03-16T13:10:19.478Z,8.82
2019-03-16T13:11:19.186Z,8.78
2019-03-16T13:12:19.213Z,8.78
2019-03-16T13:13:19.168Z,8.74
2019-03-16T13:14:19.155Z,8.67
2019-03-16T13:15:19.226Z,8.67
2019-03-16T13:16:19.134Z,8.81
2019-03-16T13:17:19.126Z,8.84
2019-03-16T13:18:19.163Z,8.73